createdAt,value
2023-01-13T00:02:12.508Z,76.17
2023-01-13T00:07:18.718Z,76.97
2023-01-13T00:12:24.244Z,79.67
2023-01-13T00:17:30.023Z,85.33
2023-01-13T00:22:38.718Z,71.33
2023-01-13T00:27:44.487Z,71.72
2023-01-13T00:32:51.073Z,73.82
2023-01-13T00:43:19.198Z,75.53
2023-01-13T00:48:25.671Z,65.85
2023-01-13T00:53:32.168Z,68.03
2023-01-13T00:58:38.357Z,71.65
2023-01-13T01:03:44.026Z,68.20
2023-01-13T01:08:49.414Z,74.90
2023-01-13T01:13:55.673Z,71.80
2023-01-13T01:19:01.879Z,73.40
2023-01-13T01:29:16.049Z,56.70
2023-01-13T01:34:21.564Z,71.93
2023-01-13T01:39:27.806Z,50.30
2023-01-13T01:44:45.704Z,69.40
2023-01-13T01:49:51.793Z,58.38
2023-01-13T01:55:02.823Z,60.10
2023-01-13T02:00:09.718Z,60.97
2023-01-13T02:05:18.954Z,60.10
2023-01-13T02:10:27.500Z,68.80
2023-01-13T02:15:39.489Z,51.85
2023-01-13T02:20:55.455Z,49.80
2023-01-13T02:26:19.696Z,49.73
2023-01-13T02:31:44.339Z,55.17
2023-01-13T02:37:00.992Z,53.63
2023-01-13T02:42:39.704Z,55.47
2023-01-13T02:47:47.544Z,58.13
2023-01-13T02:52:58.123Z,49.75
2023-01-13T02:58:04.898Z,56.88
2023-01-13T03:03:10.680Z,51.10
2023-01-13T03:08:19.841Z,59.10
2023-01-13T03:13:40.988Z,56.67
2023-01-13T03:19:01.674Z,67.35
2023-01-13T03:24:14.387Z,59.65
2023-01-13T03:29:38.449Z,59.90
2023-01-13T03:35:04.312Z,72.20
2023-01-13T03:40:13.538Z,53.67
2023-01-13T03:45:20.377Z,54.67
2023-01-13T03:50:33.604Z,51.67
2023-01-13T03:55:41.162Z,63.20
2023-01-13T04:00:53.788Z,48.97
2023-01-13T04:06:02.944Z,62.17
2023-01-13T04:11:12.819Z,44.63
2023-01-13T04:16:19.054Z,59.17
2023-01-13T04:21:24.897Z,57.63
2023-01-13T04:26:30.670Z,74.35
2023-01-13T04:31:36.535Z,55.40
2023-01-13T04:36:42.126Z,68.32
2023-01-13T04:41:59.808Z,50.73
2023-01-13T04:47:06.414Z,69.50
2023-01-13T04:57:16.934Z,58.15
2023-01-13T05:02:22.853Z,63.33
2023-01-13T05:07:29.013Z,58.30
2023-01-13T05:12:52.415Z,95.00
2023-01-13T05:17:58.336Z,69.63
2023-01-13T05:23:22.209Z,84.18
2023-01-13T05:28:27.885Z,50.78
2023-01-13T05:33:35.770Z,82.73
2023-01-13T05:38:41.601Z,93.35
2023-01-13T05:43:47.216Z,62.50
2023-01-13T05:48:53.029Z,69.90
2023-01-13T05:54:00.741Z,52.08
2023-01-13T05:59:06.668Z,59.08
2023-01-13T06:04:12.608Z,71.93
2023-01-13T06:09:18.701Z,50.22
2023-01-13T06:14:24.807Z,33.60
2023-01-13T06:19:30.647Z,66.78
2023-01-13T06:24:36.020Z,51.92
2023-01-13T06:29:41.677Z,50.73
2023-01-13T06:34:49.242Z,44.90
2023-01-13T06:39:58.419Z,47.17
2023-01-13T06:45:04.188Z,57.90
2023-01-13T06:50:09.501Z,57.90
2023-01-13T06:55:15.399Z,45.20
2023-01-13T07:00:21.235Z,54.80
2023-01-13T07:10:32.776Z,47.20
2023-01-13T07:15:38.450Z,48.63
2023-01-13T07:20:45.086Z,55.20
2023-01-13T07:25:51.830Z,44.60
2023-01-13T07:30:58.061Z,42.03
2023-01-13T07:36:05.296Z,58.55
2023-01-13T07:41:32.472Z,45.20
2023-01-13T07:46:38.238Z,42.83
2023-01-13T07:51:46.472Z,51.67
2023-01-13T07:56:51.781Z,46.40
2023-01-13T08:01:57.385Z,47.27
2023-01-13T08:07:03.005Z,54.70
2023-01-13T08:12:26.872Z,48.97
2023-01-13T08:17:32.589Z,48.42
2023-01-13T08:22:38.519Z,51.90
2023-01-13T08:32:49.725Z,52.28
2023-01-13T08:37:55.227Z,47.45
2023-01-13T08:43:01.024Z,47.78
2023-01-13T08:48:07.345Z,51.17
2023-01-13T08:53:12.851Z,45.63
2023-01-13T08:58:18.637Z,49.80
2023-01-13T09:03:24.338Z,52.05
2023-01-13T09:08:30.309Z,52.13
2023-01-13T09:18:40.859Z,56.08
2023-01-13T09:23:49.783Z,54.50
2023-01-13T09:28:55.439Z,58.28
2023-01-13T09:34:24.333Z,51.47
2023-01-13T09:39:30.077Z,55.70
2023-01-13T09:49:42.263Z,57.97
2023-01-13T09:54:58.743Z,63.80
2023-01-13T10:00:29.999Z,54.60
2023-01-13T10:05:47.302Z,62.35
2023-01-13T10:11:01.050Z,45.22
2023-01-13T10:16:07.223Z,59.40
2023-01-13T10:21:28.210Z,58.50
2023-01-13T10:26:39.970Z,68.53
2023-01-13T10:31:46.086Z,77.10
2023-01-13T10:37:17.585Z,75.05
2023-01-13T10:42:25.665Z,76.50
2023-01-13T10:47:31.301Z,70.07
2023-01-13T10:52:39.661Z,92.57
2023-01-13T10:57:45.351Z,93.28
2023-01-13T11:03:08.029Z,77.53
2023-01-13T11:08:24.730Z,93.93
2023-01-13T11:13:31.202Z,90.88
2023-01-13T11:19:25.486Z,70.45
2023-01-13T11:24:46.604Z,86.35
2023-01-13T11:30:21.467Z,91.95
2023-01-13T11:35:27.159Z,76.97
2023-01-13T11:40:45.522Z,51.00
2023-01-13T11:46:11.498Z,61.25
2023-01-13T11:51:17.754Z,95.33
2023-01-13T11:56:29.410Z,92.65
2023-01-13T12:01:58.664Z,75.97
2023-01-13T12:07:24.756Z,86.05
2023-01-13T12:12:49.030Z,97.85
2023-01-13T12:18:13.026Z,108.15
2023-01-13T12:23:39.340Z,79.50
2023-01-13T12:29:00.336Z,108.10
2023-01-13T12:34:26.530Z,115.20
2023-01-13T12:40:02.268Z,99.10
2023-01-13T12:45:14.023Z,73.23
2023-01-13T12:50:28.830Z,78.75
2023-01-13T12:55:47.116Z,54.75
2023-01-13T13:01:17.803Z,92.72
2023-01-13T13:06:25.681Z,111.53
2023-01-13T13:11:54.227Z,99.47
2023-01-13T13:17:02.533Z,108.25
2023-01-13T13:22:18.444Z,103.95
2023-01-13T13:27:25.131Z,87.60
2023-01-13T13:32:50.244Z,100.75
2023-01-13T13:38:22.943Z,124.53
2023-01-13T13:43:50.359Z,112.80
2023-01-13T13:49:03.037Z,106.32
2023-01-13T13:54:22.351Z,113.00
2023-01-13T13:59:35.101Z,110.60
2023-01-13T14:04:42.117Z,111.97
2023-01-13T14:09:49.270Z,103.68
2023-01-13T14:15:01.263Z,99.45
2023-01-13T14:20:09.743Z,106.82
2023-01-13T14:25:33.176Z,108.20
2023-01-13T14:30:39.235Z,104.50
2023-01-13T14:40:53.784Z,103.70
2023-01-13T14:46:04.235Z,101.85
2023-01-13T14:51:12.530Z,108.47
2023-01-13T14:56:36.391Z,107.32
2023-01-13T15:01:42.897Z,98.85
2023-01-13T15:06:50.170Z,120.40
2023-01-13T15:11:56.024Z,103.78
2023-01-13T15:17:01.700Z,94.43
2023-01-13T15:22:07.401Z,105.27
2023-01-13T15:27:34.180Z,100.93
2023-01-13T15:32:40.205Z,100.68
2023-01-13T15:37:46.379Z,103.18
2023-01-13T15:43:10.485Z,93.30
2023-01-13T15:48:16.044Z,92.88
2023-01-13T15:53:21.821Z,87.80
2023-01-13T15:58:28.456Z,89.67
2023-01-13T16:03:34.061Z,88.28
2023-01-13T16:08:42.745Z,79.73
2023-01-13T16:13:48.235Z,77.75
2023-01-13T16:18:55.737Z,73.30
2023-01-13T16:24:01.417Z,70.18
2023-01-13T16:29:08.832Z,68.90
2023-01-13T16:34:14.784Z,71.25
2023-01-13T16:39:24.271Z,61.88
2023-01-13T16:44:30.124Z,61.80
2023-01-13T16:49:36.133Z,58.13
2023-01-13T16:59:53.125Z,52.42
2023-01-13T17:04:58.542Z,57.17
2023-01-13T17:10:04.079Z,56.50
2023-01-13T17:15:09.903Z,55.10
2023-01-13T17:20:17.753Z,51.05
2023-01-13T17:25:23.767Z,53.03
2023-01-13T17:30:29.504Z,47.03
2023-01-13T17:35:37.218Z,44.70
2023-01-13T17:40:42.472Z,46.88
2023-01-13T17:45:48.216Z,51.90
2023-01-13T17:50:57.751Z,47.25
2023-01-13T17:56:02.987Z,52.35
2023-01-13T18:01:12.996Z,52.80
2023-01-13T18:06:22.878Z,51.13
2023-01-13T18:11:28.126Z,47.72
2023-01-13T18:16:34.737Z,52.77
2023-01-13T18:21:58.442Z,47.22
2023-01-13T18:27:22.540Z,44.70
2023-01-13T18:32:33.108Z,48.35
2023-01-13T18:37:41.847Z,43.90
2023-01-13T18:42:53.012Z,43.45
2023-01-13T18:48:04.515Z,40.88
2023-01-13T18:53:13.339Z,42.92
2023-01-13T18:58:18.955Z,50.58
2023-01-13T19:03:30.105Z,55.03
2023-01-13T19:08:36.547Z,54.95
2023-01-13T19:13:42.065Z,58.40
2023-01-13T19:18:48.016Z,51.47
2023-01-13T19:23:55.870Z,50.22
2023-01-13T19:29:01.638Z,43.42
2023-01-13T19:34:06.939Z,49.37
2023-01-13T19:39:12.237Z,47.93
2023-01-13T19:44:35.924Z,50.40
2023-01-13T19:49:41.519Z,52.55
2023-01-13T19:54:49.955Z,54.37
2023-01-13T19:59:55.598Z,51.38
2023-01-13T20:05:02.398Z,58.77
2023-01-13T20:10:07.974Z,53.47
2023-01-13T20:15:13.670Z,51.83
2023-01-13T20:20:21.820Z,58.95
2023-01-13T20:25:27.934Z,57.92
2023-01-13T20:30:33.243Z,63.97
2023-01-13T20:35:38.454Z,65.75
2023-01-13T20:40:43.694Z,61.63
2023-01-13T20:45:49.229Z,59.57
2023-01-13T20:50:56.614Z,84.50
2023-01-13T20:56:02.904Z,76.25
2023-01-13T21:01:08.473Z,61.53
2023-01-13T21:06:13.924Z,80.50
2023-01-13T21:11:38.898Z,78.10
2023-01-13T21:16:44.827Z,76.75
2023-01-13T21:21:50.249Z,73.63
2023-01-13T21:27:02.311Z,76.83
2023-01-13T21:32:08.412Z,81.40
2023-01-13T21:37:14.171Z,98.50
2023-01-13T21:42:38.523Z,96.63
2023-01-13T21:47:50.506Z,115.72
2023-01-13T21:52:56.144Z,122.50
2023-01-13T21:58:02.788Z,135.57
2023-01-13T22:03:08.604Z,123.32
2023-01-13T22:08:15.122Z,112.05
2023-01-13T22:13:38.916Z,134.10
2023-01-13T22:18:44.753Z,121.93
2023-01-13T22:23:50.541Z,131.00
2023-01-13T22:28:56.863Z,154.43
2023-01-13T22:39:08.882Z,139.55
2023-01-13T22:44:14.436Z,141.95
2023-01-13T22:49:20.043Z,154.23
2023-01-13T22:54:25.618Z,144.30
2023-01-13T22:59:33.001Z,151.80
2023-01-13T23:04:39.741Z,143.80
2023-01-13T23:09:45.682Z,151.13
2023-01-13T23:14:51.109Z,141.57
2023-01-13T23:19:56.994Z,156.03
2023-01-13T23:25:02.551Z,151.88
2023-01-13T23:30:09.012Z,156.07
2023-01-13T23:35:14.829Z,146.93
2023-01-13T23:40:20.382Z,139.98
2023-01-13T23:45:26.049Z,136.03
2023-01-13T23:50:31.399Z,149.73
2023-01-13T23:55:37.263Z,153.53
